Time;durP1;ratioP1;P1;durP2;ratioP2;P2;SDS_P1;SDS_P2;PMS_P1;PMS_P2;Temp;Humidity;BMP_temperature;BMP_pressure;BME280_temperature;BME280_humidity;BME280_pressure;Samples;Min_cycle;Max_cycle;Signal;HPM_P1;HPM_P2
2023/03/12 00:01:58;;;;;;;5.70;5.20;;;;;;;3.81;48.93;95780.75;5027966;28;20235;-68
2023/03/12 00:04:24;;;;;;;6.20;5.60;;;;;;;3.63;49.56;95776.91;5028516;28;20191;-68
2023/03/12 00:06:50;;;;;;;5.70;4.80;;;;;;;3.72;49.57;95775.81;5028218;28;20179;-69
2023/03/12 00:09:16;;;;;;;8.40;6.43;;;;;;;3.76;49.45;95780.03;5028394;28;20538;-68
2023/03/12 00:11:41;;;;;;;9.30;6.10;;;;;;;3.78;49.61;95780.81;5034040;28;20175;-68
2023/03/12 00:14:07;;;;;;;8.43;5.50;;;;;;;3.79;49.44;95791.16;5034541;28;20194;-68
2023/03/12 00:16:32;;;;;;;9.43;6.60;;;;;;;3.73;49.81;95790.47;5027380;28;20194;-68
2023/03/12 00:18:58;;;;;;;18.23;6.63;;;;;;;3.77;49.65;95787.75;5027518;28;20487;-69
2023/03/12 00:21:24;;;;;;;16.60;5.90;;;;;;;3.85;49.33;95786.69;5026312;28;20321;-68
2023/03/12 00:23:50;;;;;;;10.80;6.00;;;;;;;3.69;49.83;95787.13;5031659;28;20214;-68
2023/03/12 00:26:18;;;;;;;18.80;6.07;;;;;;;3.66;49.51;95794.13;5027581;28;20288;-70
2023/03/12 00:28:44;;;;;;;12.50;5.47;;;;;;;3.59;50.22;95793.44;5028058;28;20438;-68
2023/03/12 00:31:26;;;;;;;9.20;5.07;;;;;;;3.74;49.22;95790.44;5019594;28;20415;-68
2023/03/12 00:33:52;;;;;;;8.50;5.40;;;;;;;3.66;49.53;95795.00;5014874;28;20577;-68
2023/03/12 00:36:22;;;;;;;6.90;5.40;;;;;;;3.51;50.07;95793.63;5027577;28;20915;-68
2023/03/12 00:38:48;;;;;;;8.90;5.10;;;;;;;3.53;49.97;95789.25;5027236;28;20457;-68
2023/03/12 00:41:13;;;;;;;10.87;5.63;;;;;;;3.47;50.24;95792.00;5027466;28;20498;-70
2023/03/12 00:43:39;;;;;;;6.40;5.50;;;;;;;3.56;49.88;95794.38;5027758;28;20255;-68
2023/03/12 00:46:04;;;;;;;10.63;5.50;;;;;;;3.62;49.85;95790.78;5026722;28;20245;-69
2023/03/12 00:48:30;;;;;;;8.33;5.40;;;;;;;3.57;49.91;95796.09;5026835;28;20214;-67
2023/03/12 00:50:55;;;;;;;14.23;5.60;;;;;;;3.70;49.54;95796.59;5026970;28;20290;-69
2023/03/12 00:53:21;;;;;;;8.70;4.70;;;;;;;3.61;50.06;95796.84;5026774;28;20195;-70
2023/03/12 00:55:46;;;;;;;16.53;7.20;;;;;;;3.41;50.04;95788.75;5026921;28;20521;-68
2023/03/12 00:58:12;;;;;;;11.63;6.43;;;;;;;3.59;50.02;95794.31;5027414;28;20175;-67
2023/03/12 01:00:37;;;;;;;7.87;5.57;;;;;;;3.53;50.25;95786.66;5027379;28;20171;-68
2023/03/12 01:03:03;;;;;;;11.83;5.20;;;;;;;3.47;50.13;95784.22;5026823;28;20175;-68
2023/03/12 01:05:29;;;;;;;9.13;4.83;;;;;;;3.54;49.89;95790.97;5026875;28;20855;-67
2023/03/12 01:07:54;;;;;;;7.07;5.60;;;;;;;3.50;49.81;95785.91;5026586;28;20178;-67
2023/03/12 01:10:20;;;;;;;7.17;5.53;;;;;;;3.44;49.98;95793.84;5026767;28;20207;-69
2023/03/12 01:12:46;;;;;;;7.97;6.30;;;;;;;3.60;49.54;95793.41;5026717;28;20225;-69
2023/03/12 01:15:14;;;;;;;7.83;5.77;;;;;;;3.55;49.59;95784.88;5026740;28;20191;-70
2023/03/12 01:17:40;;;;;;;7.57;5.93;;;;;;;3.52;49.82;95789.28;5026397;28;20774;-67
2023/03/12 01:20:07;;;;;;;7.50;5.40;;;;;;;3.56;49.91;95796.97;5026588;28;20500;-68
2023/03/12 01:22:33;;;;;;;6.47;5.40;;;;;;;3.64;49.24;95796.78;5026548;28;20172;-68
2023/03/12 01:24:59;;;;;;;7.37;5.20;;;;;;;3.50;49.69;95797.13;5026727;28;20915;-68
2023/03/12 01:27:24;;;;;;;8.33;5.40;;;;;;;3.45;50.05;95793.81;5026604;28;20509;-69
2023/03/12 01:29:50;;;;;;;9.60;5.90;;;;;;;3.50;49.96;95801.47;5025909;28;20207;-67
2023/03/12 01:32:16;;;;;;;11.00;6.10;;;;;;;3.52;49.96;95797.94;5024893;28;20171;-67
2023/03/12 01:34:42;;;;;;;16.20;6.00;;;;;;;3.52;50.01;95794.47;5007374;28;20855;-70
2023/03/12 01:37:08;;;;;;;12.53;6.57;;;;;;;3.58;49.76;95802.13;5021459;28;20414;-67
2023/03/12 01:39:33;;;;;;;12.03;6.13;;;;;;;3.58;49.43;95791.75;5026743;28;20407;-70
2023/03/12 01:41:59;;;;;;;11.93;5.20;;;;;;;3.64;49.51;95795.91;5026459;28;20258;-66
2023/03/12 01:44:25;;;;;;;8.53;6.10;;;;;;;3.53;49.62;95797.03;5026751;28;20203;-67
2023/03/12 01:46:50;;;;;;;12.30;5.60;;;;;;;3.38;49.78;95792.28;5026102;28;20508;-67
2023/03/12 01:49:26;;;;;;;18.13;5.87;;;;;;;3.38;49.83;95797.47;5026443;28;20199;-69
2023/03/12 01:51:56;;;;;;;5.37;4.83;;;;;;;3.35;50.28;95794.91;5026512;28;20276;-68
2023/03/12 01:54:41;;;;;;;7.30;5.10;;;;;;;3.39;50.41;95793.97;5025527;28;20450;-67
2023/03/12 01:57:46;;;;;;;14.17;5.73;;;;;;;3.42;50.69;95788.69;5026435;28;20958;-68
2023/03/12 02:00:15;;;;;;;6.77;5.03;;;;;;;3.32;50.87;95792.41;5026158;28;21002;-69
2023/03/12 02:02:42;;;;;;;9.77;5.37;;;;;;;3.24;51.29;95800.38;5027784;28;20414;-67
2023/03/12 02:05:47;;;;;;;10.07;6.50;;;;;;;3.25;50.83;95798.66;5028031;28;20434;-69
2023/03/12 02:08:14;;;;;;;10.20;5.50;;;;;;;3.33;50.96;95801.88;5027536;28;20496;-69
2023/03/12 02:10:40;;;;;;;6.77;6.17;;;;;;;3.41;50.70;95805.16;5027133;28;20477;-69
2023/03/12 02:13:06;;;;;;;6.83;4.73;;;;;;;3.41;50.38;95799.13;5029909;28;20492;-69
2023/03/12 02:15:34;;;;;;;8.20;4.10;;;;;;;3.48;49.91;95801.50;5030575;28;20189;-70
2023/03/12 02:18:02;;;;;;;5.57;4.27;;;;;;;3.39;50.10;95814.72;5029960;28;20418;-67
2023/03/12 02:20:44;;;;;;;6.17;4.23;;;;;;;3.26;50.46;95813.28;5030158;28;20442;-71
2023/03/12 02:23:24;;;;;;;5.13;4.20;;;;;;;3.31;50.31;95806.28;5029846;28;20480;-66
2023/03/12 02:25:51;;;;;;;5.93;4.17;;;;;;;3.49;50.10;95816.16;5029880;28;20410;-69
2023/03/12 02:28:21;;;;;;;7.17;4.87;;;;;;;3.53;50.29;95815.22;5029907;28;20564;-70
2023/03/12 02:30:50;;;;;;;7.93;5.60;;;;;;;3.47;50.85;95812.75;5023425;28;20455;-67
2023/03/12 02:33:15;;;;;;;8.87;5.53;;;;;;;3.40;51.04;95808.63;5024995;28;20556;-67
2023/03/12 02:35:42;;;;;;;5.63;4.73;;;;;;;3.35;51.56;95810.47;5029749;28;21156;-70
2023/03/12 02:38:36;;;;;;;8.47;4.80;;;;;;;3.32;51.83;95819.19;5029434;28;20175;-68
2023/03/12 02:41:19;;;;;;;8.47;5.33;;;;;;;3.31;51.65;95812.31;5022371;28;20430;-67
2023/03/12 02:43:49;;;;;;;6.10;5.20;;;;;;;3.34;51.99;95820.00;5029389;28;20472;-67
2023/03/12 02:46:15;;;;;;;10.63;5.30;;;;;;;3.34;52.04;95821.75;5028811;28;20559;-68
2023/03/12 02:48:40;;;;;;;8.00;6.27;;;;;;;3.42;52.05;95814.63;5027626;28;20418;-66
2023/03/12 02:51:06;;;;;;;12.73;5.90;;;;;;;3.41;52.63;95812.94;5029510;28;20466;-68
2023/03/12 02:53:32;;;;;;;7.23;5.03;;;;;;;3.24;53.05;95820.28;5029273;28;20664;-68
2023/03/12 02:55:57;;;;;;;7.10;5.07;;;;;;;3.32;53.02;95823.53;5028802;28;20421;-68
2023/03/12 02:58:23;;;;;;;5.10;4.50;;;;;;;3.34;52.84;95822.59;5029334;28;20293;-69
2023/03/12 03:00:49;;;;;;;9.40;5.00;;;;;;;3.38;53.08;95823.38;5029462;28;20179;-68
2023/03/12 03:03:15;;;;;;;12.20;5.37;;;;;;;3.43;52.61;95818.09;5028868;28;20191;-69
2023/03/12 03:05:40;;;;;;;6.33;4.80;;;;;;;3.52;52.86;95829.09;5029036;28;20473;-69
2023/03/12 03:08:07;;;;;;;5.90;5.27;;;;;;;3.42;52.77;95812.03;5028939;28;20175;-69
2023/03/12 03:10:32;;;;;;;7.00;5.10;;;;;;;3.37;53.13;95825.09;5028797;28;20284;-67
2023/03/12 03:12:58;;;;;;;9.70;4.90;;;;;;;3.41;53.02;95823.31;5028972;28;20509;-65
2023/03/12 03:15:23;;;;;;;12.80;5.30;;;;;;;3.40;52.92;95819.00;5029639;28;20263;-71
2023/03/12 03:17:49;;;;;;;10.10;5.17;;;;;;;3.31;53.03;95827.88;5030995;28;20548;-66
2023/03/12 03:20:15;;;;;;;8.17;4.80;;;;;;;3.35;53.19;95826.03;5033521;28;20717;-69
2023/03/12 03:22:40;;;;;;;8.53;4.40;;;;;;;3.43;52.68;95831.06;5034955;28;20179;-69
2023/03/12 03:25:08;;;;;;;7.00;4.23;;;;;;;3.56;52.28;95840.22;5033990;28;20302;-70
2023/03/12 03:27:34;;;;;;;5.43;3.93;;;;;;;3.41;51.82;95833.69;5034060;28;20167;-67
2023/03/12 03:29:59;;;;;;;6.43;4.10;;;;;;;3.45;52.39;95827.53;5035816;28;20557;-69
2023/03/12 03:32:25;;;;;;;4.70;4.20;;;;;;;3.49;51.67;95834.31;5022777;28;20171;-67
2023/03/12 03:34:50;;;;;;;8.23;4.60;;;;;;;3.56;51.67;95833.28;5028540;28;20199;-67
2023/03/12 03:37:16;;;;;;;6.20;3.90;;;;;;;3.53;51.41;95828.19;5034246;28;20183;-71
2023/03/12 03:39:41;;;;;;;8.67;4.50;;;;;;;3.36;51.38;95813.03;5024369;28;20183;-69
2023/03/12 03:42:07;;;;;;;5.70;4.07;;;;;;;3.24;52.55;95823.72;5031449;28;20183;-69
2023/03/12 03:44:33;;;;;;;4.33;3.90;;;;;;;3.19;52.42;95825.59;5033644;28;20199;-69
2023/03/12 03:46:58;;;;;;;8.17;4.10;;;;;;;3.22;52.56;95822.06;5032027;28;20937;-67
2023/03/12 03:49:24;;;;;;;14.53;4.87;;;;;;;3.22;52.52;95824.66;5028034;28;20612;-67
2023/03/12 03:51:50;;;;;;;11.87;4.87;;;;;;;3.42;52.00;95829.34;5028077;28;20659;-67
2023/03/12 03:54:16;;;;;;;4.53;3.57;;;;;;;3.33;52.43;95827.81;5028258;28;20192;-70
2023/03/12 03:56:42;;;;;;;6.47;4.10;;;;;;;3.39;52.15;95831.13;5027612;28;20422;-69
2023/03/12 03:59:07;;;;;;;4.87;4.10;;;;;;;3.35;52.61;95834.69;5027890;28;20414;-68
2023/03/12 04:01:33;;;;;;;5.30;4.60;;;;;;;3.27;52.79;95822.78;5026606;28;20236;-68
2023/03/12 04:03:58;;;;;;;5.93;4.13;;;;;;;3.14;53.55;95817.91;5027881;28;20253;-68
2023/03/12 04:06:24;;;;;;;6.60;4.30;;;;;;;3.10;53.89;95808.50;5027599;28;20171;-68
2023/03/12 04:08:50;;;;;;;6.30;4.57;;;;;;;3.22;53.60;95817.72;5027919;28;20180;-68
2023/03/12 04:11:18;;;;;;;10.13;4.80;;;;;;;3.22;54.05;95809.09;5027746;28;20803;-68
2023/03/12 04:13:44;;;;;;;6.53;4.70;;;;;;;3.27;53.88;95800.31;5027790;28;20196;-68
2023/03/12 04:16:10;;;;;;;6.77;4.80;;;;;;;2.97;55.22;95799.31;5027243;28;20421;-67
2023/03/12 04:18:36;;;;;;;5.03;4.53;;;;;;;3.05;55.62;95804.28;5027862;28;20591;-66
2023/03/12 04:21:04;;;;;;;6.67;4.77;;;;;;;2.99;55.88;95794.09;5027626;28;20193;-70
2023/03/12 04:23:29;;;;;;;7.83;4.83;;;;;;;2.82;56.05;95797.09;5026252;28;20453;-71
2023/03/12 04:25:55;;;;;;;21.13;4.73;;;;;;;3.06;55.71;95796.50;5027513;28;20419;-69
2023/03/12 04:28:20;;;;;;;7.73;5.07;;;;;;;2.92;55.62;95799.41;5027607;28;20192;-68
2023/03/12 04:31:00;;;;;;;6.90;4.97;;;;;;;3.12;55.29;95793.75;5021380;28;20198;-70
2023/03/12 04:33:32;;;;;;;5.87;5.03;;;;;;;3.24;54.51;95791.75;5024622;28;20203;-69
2023/03/12 04:35:58;;;;;;;5.00;4.27;;;;;;;3.27;54.68;95795.13;5025431;28;20426;-68
2023/03/12 04:38:25;;;;;;;11.73;5.20;;;;;;;3.28;54.36;95795.97;5027516;28;20430;-69
2023/03/12 04:41:09;;;;;;;7.60;4.80;;;;;;;3.33;54.18;95796.69;5027250;28;20176;-68
2023/03/12 04:43:35;;;;;;;5.63;4.60;;;;;;;3.51;53.78;95804.00;5027098;28;20433;-68
2023/03/12 04:46:01;;;;;;;6.20;5.13;;;;;;;3.31;54.34;95790.72;5026874;28;20429;-67
2023/03/12 04:48:27;;;;;;;5.13;4.63;;;;;;;3.32;54.60;95798.44;5027349;28;20610;-70
2023/03/12 04:50:52;;;;;;;9.90;5.53;;;;;;;3.30;54.42;95812.34;5027267;28;20569;-67
2023/03/12 04:53:18;;;;;;;7.67;4.70;;;;;;;3.41;54.54;95812.09;5025863;28;20203;-67
2023/03/12 04:55:44;;;;;;;5.60;4.40;;;;;;;3.49;54.17;95804.94;5026042;28;20179;-67
2023/03/12 04:58:10;;;;;;;6.03;4.53;;;;;;;3.49;54.48;95810.13;5027066;28;20456;-67
2023/03/12 05:00:36;;;;;;;7.10;4.70;;;;;;;3.45;54.91;95813.69;5027373;28;20970;-67
2023/03/12 05:03:01;;;;;;;8.07;4.67;;;;;;;3.41;54.81;95814.69;5027128;28;20175;-68
2023/03/12 05:05:27;;;;;;;4.60;4.20;;;;;;;3.49;54.96;95810.13;5027511;28;20505;-71
2023/03/12 05:07:52;;;;;;;5.07;4.67;;;;;;;3.43;55.11;95810.31;5027516;28;20179;-67
2023/03/12 05:10:18;;;;;;;7.27;5.33;;;;;;;3.49;55.12;95808.38;5025982;28;20207;-67
2023/03/12 05:12:43;;;;;;;11.07;4.70;;;;;;;3.57;54.52;95805.63;5026907;28;20175;-67
2023/03/12 05:15:09;;;;;;;11.30;4.80;;;;;;;3.53;54.68;95815.22;5026545;28;20728;-68
2023/03/12 05:17:35;;;;;;;5.90;4.00;;;;;;;3.64;54.76;95804.56;5026371;28;20209;-69
2023/03/12 05:20:01;;;;;;;6.37;4.73;;;;;;;3.67;54.25;95793.25;5026696;28;20414;-69
2023/03/12 05:22:26;;;;;;;11.33;6.20;;;;;;;3.66;54.39;95792.41;5026713;28;20561;-71
2023/03/12 05:24:52;;;;;;;8.30;6.33;;;;;;;3.62;54.56;95806.34;5026597;28;20430;-69
2023/03/12 05:27:18;;;;;;;10.33;5.43;;;;;;;3.62;54.30;95801.16;5026583;28;20184;-69
2023/03/12 05:29:44;;;;;;;10.20;5.20;;;;;;;3.65;54.40;95802.81;5027889;28;20195;-69
2023/03/12 05:32:09;;;;;;;10.40;5.50;;;;;;;3.68;54.41;95800.97;5012665;28;20845;-69
2023/03/12 05:34:35;;;;;;;10.00;4.80;;;;;;;3.65;54.65;95798.47;5026599;28;20970;-69
2023/03/12 05:37:01;;;;;;;32.40;7.10;;;;;;;3.65;54.60;95806.25;5026003;28;20237;-69
2023/03/12 05:39:27;;;;;;;21.90;6.60;;;;;;;3.71;55.00;95808.69;5027794;28;20659;-69
2023/03/12 05:41:56;;;;;;;14.40;5.80;;;;;;;3.68;54.71;95802.72;5027215;28;20187;-68
2023/03/12 05:44:25;;;;;;;11.30;6.53;;;;;;;3.67;54.83;95807.06;5026543;28;20430;-70
2023/03/12 05:46:52;;;;;;;9.43;5.80;;;;;;;3.72;54.64;95814.72;5026784;28;20438;-68
2023/03/12 05:49:19;;;;;;;13.53;5.00;;;;;;;3.70;54.92;95806.97;5030191;28;20527;-68
2023/03/12 05:51:46;;;;;;;8.63;5.57;;;;;;;3.78;54.73;95809.34;5036303;28;20438;-68
2023/03/12 05:54:12;;;;;;;10.20;5.37;;;;;;;3.70;54.62;95799.19;5029699;28;20458;-69
2023/03/12 05:56:37;;;;;;;8.23;4.77;;;;;;;3.76;54.64;95799.03;5029948;28;20442;-68
2023/03/12 05:59:04;;;;;;;8.73;5.07;;;;;;;3.85;54.65;95802.25;5030277;28;20175;-68
2023/03/12 06:01:30;;;;;;;7.67;5.40;;;;;;;3.79;54.64;95808.47;5030371;28;20563;-67
2023/03/12 06:03:56;;;;;;;8.07;5.63;;;;;;;3.87;54.29;95803.94;5030093;28;20442;-68
2023/03/12 06:06:22;;;;;;;9.43;5.20;;;;;;;3.96;54.40;95805.44;5030063;28;20418;-68
2023/03/12 06:08:49;;;;;;;11.27;5.70;;;;;;;3.92;54.82;95803.81;5030296;28;20167;-69
2023/03/12 06:11:15;;;;;;;12.80;5.90;;;;;;;3.89;55.16;95807.34;5030451;28;20597;-66
2023/03/12 06:13:41;;;;;;;7.27;6.30;;;;;;;3.87;54.92;95806.53;5030995;28;20436;-68
2023/03/12 06:16:15;;;;;;;8.83;5.90;;;;;;;3.89;55.59;95806.50;5030621;28;20172;-68
2023/03/12 06:18:40;;;;;;;8.67;5.40;;;;;;;3.92;56.21;95799.50;5029398;28;20186;-67
2023/03/12 06:21:18;;;;;;;8.80;5.20;;;;;;;4.07;56.22;95797.34;5029845;28;20418;-71
2023/03/12 06:23:44;;;;;;;9.67;6.20;;;;;;;3.92;58.45;95799.50;5030153;28;20266;-70
2023/03/12 06:26:11;;;;;;;8.07;5.57;;;;;;;3.94;58.22;95802.88;5029916;28;20448;-68
2023/03/12 06:28:37;;;;;;;8.67;5.90;;;;;;;3.84;59.16;95795.38;5031268;28;20846;-71
2023/03/12 06:31:03;;;;;;;9.50;7.17;;;;;;;3.68;60.13;95798.38;5037947;28;20473;-68
2023/03/12 06:33:30;;;;;;;7.10;5.80;;;;;;;3.81;60.37;95793.72;5033303;28;20831;-68
2023/03/12 06:35:57;;;;;;;6.40;5.60;;;;;;;3.65;60.44;95797.63;5033259;28;20949;-67
2023/03/12 06:38:23;;;;;;;8.00;6.00;;;;;;;3.78;59.98;95792.06;5035115;28;20414;-66
2023/03/12 06:40:54;;;;;;;7.23;5.30;;;;;;;3.78;60.18;95801.56;5034109;28;20888;-67
2023/03/12 06:43:19;;;;;;;11.33;6.53;;;;;;;4.00;59.85;95802.72;5037563;28;20517;-68
2023/03/12 06:45:45;;;;;;;10.00;7.13;;;;;;;4.06;60.11;95793.88;5037210;28;21183;-68
2023/03/12 06:48:10;;;;;;;10.80;6.73;;;;;;;4.11;60.47;95805.03;5044965;28;20179;-68
2023/03/12 06:50:36;;;;;;;10.20;7.23;;;;;;;3.99;60.94;95795.81;5042727;28;20207;-68
2023/03/12 06:53:02;;;;;;;13.67;6.43;;;;;;;4.13;60.67;95800.59;5036526;28;20663;-68
2023/03/12 06:55:27;;;;;;;10.40;7.77;;;;;;;4.07;60.92;95802.56;5029506;28;20209;-66
2023/03/12 06:57:53;;;;;;;8.60;6.80;;;;;;;4.08;61.36;95799.03;5028656;28;20172;-67
2023/03/12 07:00:19;;;;;;;9.80;7.10;;;;;;;4.03;61.80;95801.78;5029100;28;20654;-66
2023/03/12 07:02:44;;;;;;;11.13;7.20;;;;;;;3.89;62.41;95806.50;5028965;28;20171;-67
2023/03/12 07:05:10;;;;;;;13.83;8.10;;;;;;;4.01;62.27;95809.59;5028807;28;20432;-66
2023/03/12 07:07:35;;;;;;;11.67;9.47;;;;;;;4.09;62.08;95800.75;5028782;28;20214;-67
2023/03/12 07:10:01;;;;;;;10.87;8.27;;;;;;;4.01;62.29;95808.75;5028721;28;20199;-66
2023/03/12 07:12:26;;;;;;;14.70;9.27;;;;;;;4.13;62.60;95808.41;5028665;28;20181;-67
2023/03/12 07:14:52;;;;;;;9.40;8.10;;;;;;;3.93;63.49;95808.13;5028795;28;20196;-66
2023/03/12 07:17:17;;;;;;;14.40;8.43;;;;;;;3.94;63.81;95820.19;5035463;28;20640;-65
2023/03/12 07:19:43;;;;;;;18.53;8.93;;;;;;;4.18;62.92;95809.16;5048133;28;20175;-67
2023/03/12 07:22:08;;;;;;;16.93;9.20;;;;;;;4.18;63.07;95819.53;5048163;28;20171;-67
2023/03/12 07:24:34;;;;;;;20.87;8.60;;;;;;;4.24;63.20;95819.34;5047806;28;20195;-70
2023/03/12 07:26:59;;;;;;;17.80;7.83;;;;;;;4.16;63.43;95817.88;5046312;28;20229;-70
2023/03/12 07:29:25;;;;;;;15.33;8.73;;;;;;;4.09;63.56;95817.19;5035228;28;20204;-70
2023/03/12 07:31:50;;;;;;;17.20;8.20;;;;;;;4.07;64.52;95813.78;5015969;28;20435;-69
2023/03/12 07:34:16;;;;;;;16.40;8.13;;;;;;;4.11;64.35;95814.53;5030083;28;20928;-70
2023/03/12 07:36:41;;;;;;;11.40;7.83;;;;;;;4.36;63.66;95815.53;5032884;28;20664;-70
2023/03/12 07:39:07;;;;;;;10.37;7.50;;;;;;;4.26;63.74;95806.31;5031266;28;20180;-70
2023/03/12 07:41:36;;;;;;;12.10;9.03;;;;;;;3.90;65.13;95809.06;5027966;28;20183;-68
2023/03/12 07:44:01;;;;;;;10.40;7.43;;;;;;;3.81;65.72;95804.94;5027964;28;20195;-69
2023/03/12 07:46:27;;;;;;;17.33;9.07;;;;;;;3.99;64.77;95816.59;5028023;28;20430;-70
2023/03/12 07:48:52;;;;;;;10.80;8.00;;;;;;;3.90;65.48;95822.03;5026538;28;20191;-70
2023/03/12 07:51:18;;;;;;;12.33;8.70;;;;;;;4.05;64.68;95819.91;5024470;28;20219;-67
2023/03/12 07:53:43;;;;;;;10.67;7.50;;;;;;;4.00;65.75;95812.25;5028025;28;20277;-70
2023/03/12 07:56:09;;;;;;;11.60;8.77;;;;;;;4.03;65.32;95813.00;5027290;28;20416;-67
2023/03/12 07:58:35;;;;;;;11.60;8.63;;;;;;;4.11;65.27;95817.13;5026903;28;20168;-68
2023/03/12 08:01:01;;;;;;;11.10;8.90;;;;;;;4.11;65.46;95814.53;5024748;28;20245;-69
2023/03/12 08:03:26;;;;;;;16.05;9.95;;;;;;;4.47;64.51;95817.84;5026549;28;20489;-71
2023/03/12 08:05:57;;;;;;;11.10;9.23;;;;;;;4.33;65.26;95817.38;5027336;28;20807;-71
2023/03/12 08:08:23;;;;;;;16.00;9.27;;;;;;;4.31;65.47;95814.81;5027641;28;20212;-70
2023/03/12 08:10:48;;;;;;;12.83;10.03;;;;;;;4.54;65.64;95818.50;5026743;28;20454;-67
2023/03/12 08:13:13;;;;;;;25.33;10.60;;;;;;;4.73;65.13;95830.06;5028233;28;20774;-71
2023/03/12 08:15:39;;;;;;;18.40;10.90;;;;;;;4.76;64.74;95827.34;5025391;28;20413;-71
2023/03/12 08:18:04;;;;;;;19.10;11.93;;;;;;;4.69;65.95;95825.00;5026566;28;20434;-69
2023/03/12 08:20:30;;;;;;;15.20;10.03;;;;;;;4.70;65.77;95831.88;5025948;28;20176;-71
2023/03/12 08:22:56;;;;;;;15.00;10.40;;;;;;;4.64;66.58;95833.78;5027408;28;20183;-69
2023/03/12 08:25:23;;;;;;;19.83;10.63;;;;;;;4.48;67.27;95831.66;5028263;28;20187;-71
2023/03/12 08:27:49;;;;;;;15.00;11.63;;;;;;;4.52;67.15;95836.75;5027674;28;20180;-70
2023/03/12 08:30:15;;;;;;;15.10;11.37;;;;;;;4.48;67.13;95829.91;5025263;28;20481;-69
2023/03/12 08:32:40;;;;;;;16.03;11.23;;;;;;;4.33;68.51;95840.75;5018554;28;20277;-70
2023/03/12 08:35:06;;;;;;;21.73;10.67;;;;;;;4.51;67.54;95835.03;5026146;28;20624;-70
2023/03/12 08:37:32;;;;;;;15.43;10.50;;;;;;;4.74;67.38;95836.09;5027390;28;20164;-70
2023/03/12 08:39:58;;;;;;;15.57;11.10;;;;;;;4.84;66.80;95837.50;5028718;28;20906;-70
2023/03/12 08:42:24;;;;;;;17.13;11.57;;;;;;;5.01;66.24;95834.41;5036269;28;20750;-71
2023/03/12 08:44:49;;;;;;;11.83;9.67;;;;;;;4.64;68.40;95838.13;5026518;28;20454;-68
2023/03/12 08:47:15;;;;;;;16.20;9.90;;;;;;;4.43;68.82;95837.84;5028145;28;20176;-68
2023/03/12 08:49:40;;;;;;;15.40;9.80;;;;;;;4.39;69.19;95840.56;5026842;28;20199;-69
2023/03/12 08:52:06;;;;;;;21.80;11.30;;;;;;;4.64;68.26;95830.31;5027419;28;20261;-72
2023/03/12 08:54:31;;;;;;;14.30;12.10;;;;;;;4.57;68.84;95831.41;5027254;28;20269;-70
2023/03/12 08:56:57;;;;;;;15.90;11.10;;;;;;;4.87;67.82;95821.84;5027231;28;20219;-72
2023/03/12 08:59:22;;;;;;;24.33;10.70;;;;;;;5.00;68.01;95836.16;5026803;28;20167;-71
2023/03/12 09:01:48;;;;;;;20.67;12.97;;;;;;;5.29;66.78;95834.38;5028006;28;20188;-70
2023/03/12 09:04:14;;;;;;;14.93;10.70;;;;;;;5.26;66.95;95845.72;5030246;28;20192;-69
2023/03/12 09:06:40;;;;;;;17.77;11.37;;;;;;;5.44;65.71;95843.44;5024478;28;20179;-69
2023/03/12 09:09:07;;;;;;;18.90;11.97;;;;;;;5.31;67.40;95850.78;5024993;28;20988;-70
2023/03/12 09:11:34;;;;;;;17.47;12.67;;;;;;;5.48;67.11;95845.03;5035725;28;20201;-68
2023/03/12 09:14:00;;;;;;;17.43;10.70;;;;;;;5.50;66.74;95843.22;5034543;28;20561;-69
2023/03/12 09:16:27;;;;;;;14.20;11.40;;;;;;;5.79;65.98;95844.00;5024322;28;20434;-71
2023/03/12 09:18:53;;;;;;;12.60;10.53;;;;;;;5.82;65.94;95847.38;5023395;28;20438;-72
2023/03/12 09:21:19;;;;;;;13.53;10.23;;;;;;;6.26;64.51;95847.63;5023639;28;20438;-70
2023/03/12 09:23:46;;;;;;;15.50;11.43;;;;;;;6.07;65.24;95847.41;5026049;28;20448;-70
2023/03/12 09:26:12;;;;;;;14.97;10.67;;;;;;;6.20;65.02;95839.16;5025451;28;21124;-72
2023/03/12 09:28:38;;;;;;;12.17;10.40;;;;;;;6.11;65.37;95841.19;5026317;28;20497;-70
2023/03/12 09:31:04;;;;;;;12.57;9.90;;;;;;;6.10;65.05;95843.84;5021834;28;20556;-70
2023/03/12 09:33:32;;;;;;;15.90;11.10;;;;;;;6.18;65.17;95833.16;5025636;28;20202;-69
2023/03/12 09:35:58;;;;;;;13.13;10.90;;;;;;;6.27;64.78;95831.06;5025216;28;20439;-70
2023/03/12 09:38:25;;;;;;;16.43;10.73;;;;;;;6.23;65.27;95844.25;5028084;28;20527;-68
2023/03/12 09:40:51;;;;;;;21.63;12.70;;;;;;;6.35;65.49;95836.00;5025850;28;20584;-70
2023/03/12 09:43:31;;;;;;;15.80;11.53;;;;;;;6.32;65.61;95833.50;5036257;28;20457;-71
2023/03/12 09:45:57;;;;;;;17.20;11.87;;;;;;;6.44;65.31;95840.88;5019272;28;20445;-75
2023/03/12 09:48:36;;;;;;;30.43;13.73;;;;;;;6.50;66.10;95838.06;5028788;28;20444;-68
2023/03/12 09:51:19;;;;;;;15.90;11.20;;;;;;;6.74;65.74;95836.28;5025360;28;20454;-69
2023/03/12 09:53:52;;;;;;;22.70;10.80;;;;;;;6.94;65.24;95832.06;5023263;28;20519;-70
2023/03/12 09:56:19;;;;;;;18.77;13.03;;;;;;;6.91;65.49;95833.03;5026681;28;20875;-68
2023/03/12 09:58:47;;;;;;;17.00;12.40;;;;;;;7.02;65.43;95837.84;5019005;28;20787;-69
2023/03/12 10:01:36;;;;;;;24.97;14.00;;;;;;;7.01;65.89;95841.34;5024557;28;20503;-70
2023/03/12 10:04:33;;;;;;;19.53;14.43;;;;;;;7.03;67.22;95839.53;5022782;28;20465;-70
2023/03/12 10:07:04;;;;;;;18.13;13.20;;;;;;;7.17;67.10;95837.22;5018019;28;20851;-69
2023/03/12 10:10:04;;;;;;;24.13;14.50;;;;;;;7.02;67.89;95839.59;5024073;28;20508;-70
2023/03/12 10:12:52;;;;;;;17.67;14.00;;;;;;;7.13;68.71;95840.00;5021870;28;21061;-70
2023/03/12 10:15:29;;;;;;;20.80;14.17;;;;;;;7.27;68.80;95839.47;5020969;28;20434;-69
2023/03/12 10:18:10;;;;;;;20.63;14.37;;;;;;;7.42;68.93;95842.31;5022335;28;20429;-69
2023/03/12 10:20:52;;;;;;;21.30;13.67;;;;;;;7.74;68.42;95834.91;5018985;28;20459;-72
2023/03/12 10:23:41;;;;;;;18.40;14.63;;;;;;;7.67;68.82;95838.69;5012272;28;20454;-71
2023/03/12 10:26:13;;;;;;;21.40;13.00;;;;;;;7.50;70.64;95834.19;5020210;28;20433;-72
2023/03/12 10:28:48;;;;;;;18.87;13.57;;;;;;;7.70;69.78;95838.59;5022570;28;20456;-71
2023/03/12 10:31:36;;;;;;;16.97;12.80;;;;;;;7.80;69.99;95839.91;5022570;28;20472;-72
2023/03/12 10:34:10;;;;;;;18.17;13.83;;;;;;;7.76;70.35;95838.31;5020479;28;20453;-69
2023/03/12 10:36:39;;;;;;;15.03;12.77;;;;;;;7.89;71.27;95835.19;5024481;28;20435;-69
2023/03/12 10:39:14;;;;;;;14.87;11.13;;;;;;;7.84;71.21;95836.25;5021938;28;20434;-68
2023/03/12 10:41:42;;;;;;;13.30;10.53;;;;;;;7.92;70.74;95837.69;5028359;28;20525;-69
2023/03/12 10:44:13;;;;;;;17.50;11.20;;;;;;;7.99;70.72;95833.91;5025297;28;20533;-69
2023/03/12 10:46:58;;;;;;;11.80;10.50;;;;;;;8.04;71.05;95837.16;5029325;28;20934;-70
2023/03/12 10:49:36;;;;;;;16.03;10.67;;;;;;;8.09;71.05;95831.72;5026603;28;20495;-70
2023/03/12 10:52:17;;;;;;;17.53;10.97;;;;;;;8.05;71.60;95841.47;5026723;28;20565;-69
2023/03/12 10:54:50;;;;;;;19.07;11.03;;;;;;;8.19;71.06;95841.72;5027139;28;20468;-68
2023/03/12 10:57:17;;;;;;;13.97;9.80;;;;;;;8.50;70.99;95837.78;5036549;28;20429;-67
2023/03/12 10:59:46;;;;;;;11.10;8.90;;;;;;;8.85;68.77;95830.09;5033423;28;20517;-69
2023/03/12 11:02:41;;;;;;;12.50;10.33;;;;;;;9.20;67.86;95832.84;5034986;28;20475;-70
2023/03/12 11:05:27;;;;;;;14.73;9.13;;;;;;;9.41;68.47;95841.44;5032563;28;20477;-70
2023/03/12 11:07:53;;;;;;;25.60;15.77;;;;;;;9.43;67.66;95827.34;5027223;28;20445;-69
2023/03/12 11:10:22;;;;;;;22.27;13.50;;;;;;;9.49;67.42;95832.28;5031548;28;20561;-73
2023/03/12 11:12:57;;;;;;;15.03;10.20;;;;;;;9.51;67.06;95840.06;5031210;28;20524;-70
2023/03/12 11:15:27;;;;;;;8.73;7.00;;;;;;;9.72;65.93;95838.16;5028678;28;20461;-71
2023/03/12 11:18:26;;;;;;;11.80;7.90;;;;;;;9.91;65.31;95841.56;5025603;28;20441;-70
2023/03/12 11:21:08;;;;;;;10.40;7.10;;;;;;;9.74;66.18;95841.56;5022453;28;20431;-70
2023/03/12 11:23:37;;;;;;;10.07;7.03;;;;;;;9.62;66.27;95852.66;5024819;28;20455;-69
2023/03/12 11:26:10;;;;;;;8.83;6.33;;;;;;;9.48;66.59;95855.94;5026302;28;20437;-69
2023/03/12 11:28:43;;;;;;;11.90;6.80;;;;;;;9.39;67.45;95862.47;5025192;28;20524;-70
2023/03/12 11:31:40;;;;;;;37.57;9.73;;;;;;;9.37;66.99;95856.44;5025327;28;20474;-69
2023/03/12 11:34:13;;;;;;;10.53;7.27;;;;;;;9.35;67.56;95850.41;5022280;28;20493;-69
2023/03/12 11:37:20;;;;;;;10.17;6.93;;;;;;;9.51;67.05;95850.53;5026195;28;20513;-69
2023/03/12 11:39:48;;;;;;;14.13;6.87;;;;;;;9.46;66.92;95848.16;5027508;28;20493;-70
2023/03/12 11:42:40;;;;;;;15.47;8.20;;;;;;;9.50;67.66;95843.63;5040002;28;20487;-71